sensor_id;sensor_type;location;lat;lon;timestamp;P1;durP1;ratioP1;P2;durP2;ratioP2
7575;SDS011;3829;50.798;4.358;2023-06-24T00:01:48;8.80;;;5.27;;
7575;SDS011;3829;50.798;4.358;2023-06-24T00:04:14;11.17;;;5.40;;
7575;SDS011;3829;50.798;4.358;2023-06-24T00:06:40;8.40;;;5.53;;
7575;SDS011;3829;50.798;4.358;2023-06-24T00:09:06;8.27;;;5.30;;
7575;SDS011;3829;50.798;4.358;2023-06-24T00:11:32;7.53;;;5.07;;
7575;SDS011;3829;50.798;4.358;2023-06-24T00:13:58;5.47;;;4.23;;
7575;SDS011;3829;50.798;4.358;2023-06-24T00:16:23;6.93;;;4.40;;
7575;SDS011;3829;50.798;4.358;2023-06-24T00:18:53;6.23;;;4.50;;
7575;SDS011;3829;50.798;4.358;2023-06-24T00:21:20;8.30;;;5.00;;
7575;SDS011;3829;50.798;4.358;2023-06-24T00:23:46;5.87;;;4.27;;
7575;SDS011;3829;50.798;4.358;2023-06-24T00:26:14;6.53;;;4.20;;
7575;SDS011;3829;50.798;4.358;2023-06-24T00:28:40;7.37;;;4.03;;
7575;SDS011;3829;50.798;4.358;2023-06-24T00:31:05;7.23;;;4.40;;
7575;SDS011;3829;50.798;4.358;2023-06-24T00:33:31;6.13;;;3.53;;
7575;SDS011;3829;50.798;4.358;2023-06-24T00:36:01;7.30;;;4.33;;
7575;SDS011;3829;50.798;4.358;2023-06-24T00:38:26;7.13;;;4.20;;
7575;SDS011;3829;50.798;4.358;2023-06-24T00:40:54;8.20;;;4.03;;
7575;SDS011;3829;50.798;4.358;2023-06-24T00:43:19;5.80;;;4.13;;
7575;SDS011;3829;50.798;4.358;2023-06-24T00:45:45;5.73;;;4.37;;
7575;SDS011;3829;50.798;4.358;2023-06-24T00:48:13;6.73;;;4.63;;
7575;SDS011;3829;50.798;4.358;2023-06-24T00:50:39;5.67;;;3.93;;
7575;SDS011;3829;50.798;4.358;2023-06-24T00:53:10;4.43;;;3.73;;
7575;SDS011;3829;50.798;4.358;2023-06-24T00:55:37;5.90;;;3.93;;
7575;SDS011;3829;50.798;4.358;2023-06-24T00:58:03;8.07;;;4.40;;
7575;SDS011;3829;50.798;4.358;2023-06-24T01:00:29;4.67;;;3.97;;
7575;SDS011;3829;50.798;4.358;2023-06-24T01:02:59;7.73;;;4.00;;
7575;SDS011;3829;50.798;4.358;2023-06-24T01:05:25;6.90;;;4.27;;
7575;SDS011;3829;50.798;4.358;2023-06-24T01:07:52;5.47;;;4.37;;
7575;SDS011;3829;50.798;4.358;2023-06-24T01:10:21;5.20;;;4.10;;
7575;SDS011;3829;50.798;4.358;2023-06-24T01:12:48;6.20;;;4.03;;
7575;SDS011;3829;50.798;4.358;2023-06-24T01:15:14;6.83;;;4.13;;
7575;SDS011;3829;50.798;4.358;2023-06-24T01:20:25;9.23;;;4.20;;
7575;SDS011;3829;50.798;4.358;2023-06-24T01:25:43;7.37;;;4.47;;
7575;SDS011;3829;50.798;4.358;2023-06-24T01:28:27;4.70;;;3.87;;
7575;SDS011;3829;50.798;4.358;2023-06-24T01:31:23;6.07;;;4.50;;
7575;SDS011;3829;50.798;4.358;2023-06-24T01:34:02;7.10;;;4.17;;
7575;SDS011;3829;50.798;4.358;2023-06-24T01:36:38;7.00;;;4.50;;
7575;SDS011;3829;50.798;4.358;2023-06-24T01:39:09;6.10;;;4.07;;
7575;SDS011;3829;50.798;4.358;2023-06-24T01:41:41;8.07;;;4.27;;
7575;SDS011;3829;50.798;4.358;2023-06-24T01:44:09;5.07;;;4.07;;
7575;SDS011;3829;50.798;4.358;2023-06-24T01:46:38;9.17;;;4.23;;
7575;SDS011;3829;50.798;4.358;2023-06-24T01:49:05;6.77;;;4.40;;
7575;SDS011;3829;50.798;4.358;2023-06-24T01:51:36;8.10;;;4.83;;
7575;SDS011;3829;50.798;4.358;2023-06-24T01:54:06;6.60;;;4.80;;
7575;SDS011;3829;50.798;4.358;2023-06-24T01:56:35;5.30;;;3.80;;
7575;SDS011;3829;50.798;4.358;2023-06-24T01:59:02;8.57;;;6.30;;
7575;SDS011;3829;50.798;4.358;2023-06-24T02:01:29;7.43;;;4.70;;
7575;SDS011;3829;50.798;4.358;2023-06-24T02:03:58;7.20;;;4.33;;
7575;SDS011;3829;50.798;4.358;2023-06-24T02:06:26;6.47;;;4.03;;
7575;SDS011;3829;50.798;4.358;2023-06-24T02:08:54;8.83;;;4.50;;
7575;SDS011;3829;50.798;4.358;2023-06-24T02:11:23;6.07;;;4.10;;
7575;SDS011;3829;50.798;4.358;2023-06-24T02:13:51;6.20;;;4.33;;
7575;SDS011;3829;50.798;4.358;2023-06-24T02:16:20;5.70;;;4.40;;
7575;SDS011;3829;50.798;4.358;2023-06-24T02:18:47;5.73;;;4.00;;
7575;SDS011;3829;50.798;4.358;2023-06-24T02:21:14;5.07;;;3.90;;
7575;SDS011;3829;50.798;4.358;2023-06-24T02:23:43;7.30;;;4.40;;
7575;SDS011;3829;50.798;4.358;2023-06-24T02:26:09;6.83;;;4.27;;
7575;SDS011;3829;50.798;4.358;2023-06-24T02:28:36;5.37;;;4.10;;
7575;SDS011;3829;50.798;4.358;2023-06-24T02:31:03;9.53;;;4.13;;
7575;SDS011;3829;50.798;4.358;2023-06-24T02:33:30;4.87;;;4.00;;
7575;SDS011;3829;50.798;4.358;2023-06-24T02:35:56;6.10;;;4.20;;
7575;SDS011;3829;50.798;4.358;2023-06-24T02:38:22;6.33;;;4.27;;
7575;SDS011;3829;50.798;4.358;2023-06-24T02:40:48;6.40;;;4.27;;
7575;SDS011;3829;50.798;4.358;2023-06-24T02:43:14;7.50;;;4.53;;
7575;SDS011;3829;50.798;4.358;2023-06-24T02:45:40;6.57;;;3.90;;
7575;SDS011;3829;50.798;4.358;2023-06-24T02:48:06;6.90;;;4.30;;
7575;SDS011;3829;50.798;4.358;2023-06-24T02:50:35;5.17;;;3.53;;
7575;SDS011;3829;50.798;4.358;2023-06-24T02:53:02;6.97;;;3.60;;
7575;SDS011;3829;50.798;4.358;2023-06-24T02:55:29;9.00;;;4.27;;
7575;SDS011;3829;50.798;4.358;2023-06-24T02:57:57;5.07;;;3.83;;
7575;SDS011;3829;50.798;4.358;2023-06-24T03:00:23;8.13;;;4.00;;
7575;SDS011;3829;50.798;4.358;2023-06-24T03:02:49;7.30;;;4.03;;
7575;SDS011;3829;50.798;4.358;2023-06-24T03:05:15;8.47;;;4.47;;
7575;SDS011;3829;50.798;4.358;2023-06-24T03:07:43;5.67;;;4.27;;
7575;SDS011;3829;50.798;4.358;2023-06-24T03:10:10;4.83;;;4.03;;
7575;SDS011;3829;50.798;4.358;2023-06-24T03:12:36;5.93;;;4.23;;
7575;SDS011;3829;50.798;4.358;2023-06-24T03:15:01;5.70;;;4.33;;
7575;SDS011;3829;50.798;4.358;2023-06-24T03:17:27;6.07;;;4.10;;
7575;SDS011;3829;50.798;4.358;2023-06-24T03:19:53;7.60;;;4.20;;
7575;SDS011;3829;50.798;4.358;2023-06-24T03:22:18;7.70;;;4.20;;
7575;SDS011;3829;50.798;4.358;2023-06-24T03:24:44;5.27;;;4.03;;
7575;SDS011;3829;50.798;4.358;2023-06-24T03:27:10;8.63;;;4.10;;
7575;SDS011;3829;50.798;4.358;2023-06-24T03:29:36;7.73;;;3.50;;
7575;SDS011;3829;50.798;4.358;2023-06-24T03:32:01;5.07;;;3.90;;
7575;SDS011;3829;50.798;4.358;2023-06-24T03:34:27;10.00;;;4.53;;
7575;SDS011;3829;50.798;4.358;2023-06-24T03:36:53;6.17;;;3.97;;
7575;SDS011;3829;50.798;4.358;2023-06-24T03:39:19;12.13;;;4.73;;
7575;SDS011;3829;50.798;4.358;2023-06-24T03:41:45;6.70;;;4.70;;
7575;SDS011;3829;50.798;4.358;2023-06-24T03:44:11;9.83;;;4.70;;
7575;SDS011;3829;50.798;4.358;2023-06-24T03:46:37;8.20;;;4.37;;
7575;SDS011;3829;50.798;4.358;2023-06-24T03:49:02;9.50;;;4.40;;
7575;SDS011;3829;50.798;4.358;2023-06-24T03:51:29;7.20;;;4.73;;
7575;SDS011;3829;50.798;4.358;2023-06-24T03:53:54;9.17;;;4.20;;
7575;SDS011;3829;50.798;4.358;2023-06-24T03:56:20;6.40;;;4.33;;
7575;SDS011;3829;50.798;4.358;2023-06-24T03:58:46;10.23;;;4.57;;
7575;SDS011;3829;50.798;4.358;2023-06-24T04:01:11;6.67;;;4.27;;
7575;SDS011;3829;50.798;4.358;2023-06-24T04:03:37;6.07;;;4.67;;
7575;SDS011;3829;50.798;4.358;2023-06-24T04:06:02;8.27;;;4.30;;
7575;SDS011;3829;50.798;4.358;2023-06-24T04:08:28;7.73;;;4.40;;
7575;SDS011;3829;50.798;4.358;2023-06-24T04:10:55;9.63;;;4.10;;
7575;SDS011;3829;50.798;4.358;2023-06-24T04:13:21;8.30;;;4.87;;
7575;SDS011;3829;50.798;4.358;2023-06-24T04:15:46;6.37;;;4.13;;
7575;SDS011;3829;50.798;4.358;2023-06-24T04:18:12;6.30;;;4.40;;
7575;SDS011;3829;50.798;4.358;2023-06-24T04:20:38;10.07;;;4.30;;
7575;SDS011;3829;50.798;4.358;2023-06-24T04:23:03;7.80;;;4.33;;
7575;SDS011;3829;50.798;4.358;2023-06-24T04:25:30;10.00;;;4.50;;
7575;SDS011;3829;50.798;4.358;2023-06-24T04:27:56;6.00;;;3.97;;
7575;SDS011;3829;50.798;4.358;2023-06-24T04:30:22;5.57;;;4.40;;
7575;SDS011;3829;50.798;4.358;2023-06-24T04:32:48;7.27;;;4.33;;
7575;SDS011;3829;50.798;4.358;2023-06-24T04:35:13;6.10;;;4.07;;
7575;SDS011;3829;50.798;4.358;2023-06-24T04:37:39;6.30;;;3.97;;
7575;SDS011;3829;50.798;4.358;2023-06-24T04:40:05;5.83;;;4.30;;
7575;SDS011;3829;50.798;4.358;2023-06-24T04:42:31;5.00;;;3.73;;
7575;SDS011;3829;50.798;4.358;2023-06-24T04:44:56;4.00;;;3.60;;
7575;SDS011;3829;50.798;4.358;2023-06-24T04:47:22;5.90;;;3.93;;
7575;SDS011;3829;50.798;4.358;2023-06-24T04:49:47;5.23;;;3.43;;
7575;SDS011;3829;50.798;4.358;2023-06-24T04:52:13;6.17;;;3.97;;
7575;SDS011;3829;50.798;4.358;2023-06-24T04:54:39;7.50;;;3.90;;
7575;SDS011;3829;50.798;4.358;2023-06-24T04:57:06;3.77;;;3.30;;
7575;SDS011;3829;50.798;4.358;2023-06-24T04:59:33;6.80;;;3.80;;
7575;SDS011;3829;50.798;4.358;2023-06-24T05:01:59;4.70;;;3.57;;
7575;SDS011;3829;50.798;4.358;2023-06-24T05:04:25;5.87;;;3.57;;
7575;SDS011;3829;50.798;4.358;2023-06-24T05:06:50;3.73;;;3.33;;
7575;SDS011;3829;50.798;4.358;2023-06-24T05:09:16;4.87;;;3.40;;
7575;SDS011;3829;50.798;4.358;2023-06-24T05:11:43;6.17;;;3.67;;
7575;SDS011;3829;50.798;4.358;2023-06-24T05:14:08;5.50;;;3.60;;
7575;SDS011;3829;50.798;4.358;2023-06-24T05:16:34;5.77;;;3.60;;
7575;SDS011;3829;50.798;4.358;2023-06-24T05:19:00;6.63;;;3.50;;
7575;SDS011;3829;50.798;4.358;2023-06-24T05:21:25;6.07;;;3.47;;
7575;SDS011;3829;50.798;4.358;2023-06-24T05:23:51;6.27;;;4.00;;
7575;SDS011;3829;50.798;4.358;2023-06-24T05:26:16;3.73;;;2.87;;
7575;SDS011;3829;50.798;4.358;2023-06-24T05:28:42;6.33;;;4.83;;
7575;SDS011;3829;50.798;4.358;2023-06-24T05:31:08;7.67;;;4.23;;
7575;SDS011;3829;50.798;4.358;2023-06-24T05:33:33;5.37;;;3.50;;
7575;SDS011;3829;50.798;4.358;2023-06-24T05:35:59;5.27;;;3.30;;
7575;SDS011;3829;50.798;4.358;2023-06-24T05:38:24;4.63;;;3.80;;
7575;SDS011;3829;50.798;4.358;2023-06-24T05:40:50;4.13;;;3.40;;
7575;SDS011;3829;50.798;4.358;2023-06-24T05:43:15;6.13;;;3.37;;
7575;SDS011;3829;50.798;4.358;2023-06-24T05:45:41;8.13;;;4.30;;
7575;SDS011;3829;50.798;4.358;2023-06-24T05:48:07;3.40;;;3.10;;
7575;SDS011;3829;50.798;4.358;2023-06-24T05:50:32;4.97;;;3.10;;
7575;SDS011;3829;50.798;4.358;2023-06-24T05:52:58;5.40;;;3.43;;
7575;SDS011;3829;50.798;4.358;2023-06-24T05:55:23;4.47;;;3.40;;
7575;SDS011;3829;50.798;4.358;2023-06-24T05:57:49;9.23;;;3.80;;
7575;SDS011;3829;50.798;4.358;2023-06-24T06:00:16;6.00;;;3.47;;
7575;SDS011;3829;50.798;4.358;2023-06-24T06:02:42;4.13;;;3.20;;
7575;SDS011;3829;50.798;4.358;2023-06-24T06:05:08;3.50;;;2.87;;
7575;SDS011;3829;50.798;4.358;2023-06-24T06:07:34;8.50;;;3.50;;
7575;SDS011;3829;50.798;4.358;2023-06-24T06:10:00;5.27;;;3.30;;
7575;SDS011;3829;50.798;4.358;2023-06-24T06:12:25;4.77;;;3.53;;
7575;SDS011;3829;50.798;4.358;2023-06-24T06:14:51;4.07;;;3.40;;
7575;SDS011;3829;50.798;4.358;2023-06-24T06:17:17;4.17;;;3.13;;
7575;SDS011;3829;50.798;4.358;2023-06-24T06:19:42;6.20;;;3.43;;
7575;SDS011;3829;50.798;4.358;2023-06-24T06:22:11;5.77;;;3.40;;
7575;SDS011;3829;50.798;4.358;2023-06-24T06:24:37;9.23;;;3.40;;
7575;SDS011;3829;50.798;4.358;2023-06-24T06:27:03;6.00;;;3.63;;
7575;SDS011;3829;50.798;4.358;2023-06-24T06:29:29;4.20;;;3.00;;
7575;SDS011;3829;50.798;4.358;2023-06-24T06:31:54;6.10;;;3.77;;
7575;SDS011;3829;50.798;4.358;2023-06-24T06:34:22;4.50;;;3.63;;
7575;SDS011;3829;50.798;4.358;2023-06-24T06:36:47;6.47;;;3.13;;
7575;SDS011;3829;50.798;4.358;2023-06-24T06:39:13;5.73;;;3.47;;
7575;SDS011;3829;50.798;4.358;2023-06-24T06:41:38;5.03;;;3.27;;
7575;SDS011;3829;50.798;4.358;2023-06-24T06:44:04;6.03;;;3.30;;
7575;SDS011;3829;50.798;4.358;2023-06-24T06:46:30;6.63;;;3.40;;
7575;SDS011;3829;50.798;4.358;2023-06-24T06:48:55;3.70;;;2.90;;
7575;SDS011;3829;50.798;4.358;2023-06-24T06:51:21;8.40;;;3.30;;
7575;SDS011;3829;50.798;4.358;2023-06-24T06:53:49;5.63;;;3.40;;
7575;SDS011;3829;50.798;4.358;2023-06-24T06:56:16;7.20;;;3.10;;
7575;SDS011;3829;50.798;4.358;2023-06-24T06:58:44;5.83;;;2.80;;
7575;SDS011;3829;50.798;4.358;2023-06-24T07:01:09;4.60;;;3.13;;
7575;SDS011;3829;50.798;4.358;2023-06-24T07:03:35;3.80;;;2.90;;
7575;SDS011;3829;50.798;4.358;2023-06-24T07:06:00;7.13;;;3.00;;
7575;SDS011;3829;50.798;4.358;2023-06-24T07:08:26;4.10;;;2.97;;
7575;SDS011;3829;50.798;4.358;2023-06-24T07:10:52;3.33;;;2.43;;
7575;SDS011;3829;50.798;4.358;2023-06-24T07:13:17;3.90;;;2.40;;
7575;SDS011;3829;50.798;4.358;2023-06-24T07:15:43;5.97;;;2.70;;
7575;SDS011;3829;50.798;4.358;2023-06-24T07:18:09;2.70;;;2.50;;
7575;SDS011;3829;50.798;4.358;2023-06-24T07:20:34;4.90;;;2.60;;
7575;SDS011;3829;50.798;4.358;2023-06-24T07:23:00;6.10;;;3.00;;
7575;SDS011;3829;50.798;4.358;2023-06-24T07:25:25;4.83;;;2.80;;
7575;SDS011;3829;50.798;4.358;2023-06-24T07:27:53;4.93;;;3.27;;
7575;SDS011;3829;50.798;4.358;2023-06-24T07:30:19;8.50;;;2.63;;
7575;SDS011;3829;50.798;4.358;2023-06-24T07:32:45;4.57;;;2.97;;
7575;SDS011;3829;50.798;4.358;2023-06-24T07:35:10;6.57;;;3.10;;
7575;SDS011;3829;50.798;4.358;2023-06-24T07:37:36;6.13;;;2.90;;
7575;SDS011;3829;50.798;4.358;2023-06-24T07:40:03;3.77;;;2.50;;
7575;SDS011;3829;50.798;4.358;2023-06-24T07:42:30;4.80;;;2.53;;
7575;SDS011;3829;50.798;4.358;2023-06-24T07:44:56;6.27;;;2.60;;
7575;SDS011;3829;50.798;4.358;2023-06-24T07:47:21;6.80;;;3.20;;
7575;SDS011;3829;50.798;4.358;2023-06-24T07:49:47;4.73;;;2.83;;
7575;SDS011;3829;50.798;4.358;2023-06-24T07:52:12;4.20;;;2.60;;
7575;SDS011;3829;50.798;4.358;2023-06-24T07:54:38;4.63;;;2.97;;
7575;SDS011;3829;50.798;4.358;2023-06-24T07:57:04;2.87;;;2.50;;
7575;SDS011;3829;50.798;4.358;2023-06-24T07:59:29;5.33;;;2.83;;
7575;SDS011;3829;50.798;4.358;2023-06-24T08:01:55;3.63;;;2.70;;
7575;SDS011;3829;50.798;4.358;2023-06-24T08:04:20;3.13;;;2.30;;
7575;SDS011;3829;50.798;4.358;2023-06-24T08:06:46;6.30;;;2.50;;
7575;SDS011;3829;50.798;4.358;2023-06-24T08:09:11;2.43;;;2.23;;
7575;SDS011;3829;50.798;4.358;2023-06-24T08:11:37;3.80;;;2.50;;
7575;SDS011;3829;50.798;4.358;2023-06-24T08:14:03;2.90;;;2.57;;
7575;SDS011;3829;50.798;4.358;2023-06-24T08:16:29;7.60;;;2.87;;
7575;SDS011;3829;50.798;4.358;2023-06-24T08:18:54;4.93;;;2.90;;
7575;SDS011;3829;50.798;4.358;2023-06-24T08:21:20;5.93;;;2.60;;
7575;SDS011;3829;50.798;4.358;2023-06-24T08:23:46;3.33;;;2.40;;
7575;SDS011;3829;50.798;4.358;2023-06-24T08:26:12;2.70;;;2.50;;
7575;SDS011;3829;50.798;4.358;2023-06-24T08:28:37;3.23;;;2.50;;
7575;SDS011;3829;50.798;4.358;2023-06-24T08:31:03;2.93;;;2.47;;
7575;SDS011;3829;50.798;4.358;2023-06-24T08:33:29;4.33;;;2.20;;
7575;SDS011;3829;50.798;4.358;2023-06-24T08:35:54;2.50;;;1.93;;
7575;SDS011;3829;50.798;4.358;2023-06-24T08:38:20;3.07;;;2.20;;
7575;SDS011;3829;50.798;4.358;2023-06-24T08:40:45;2.73;;;1.97;;
7575;SDS011;3829;50.798;4.358;2023-06-24T08:43:12;2.43;;;1.70;;
7575;SDS011;3829;50.798;4.358;2023-06-24T08:45:38;2.10;;;1.90;;
7575;SDS011;3829;50.798;4.358;2023-06-24T08:48:03;3.03;;;1.90;;
7575;SDS011;3829;50.798;4.358;2023-06-24T08:50:33;2.10;;;1.77;;
7575;SDS011;3829;50.798;4.358;2023-06-24T08:53:03;3.40;;;1.93;;
7575;SDS011;3829;50.798;4.358;2023-06-24T08:55:34;2.83;;;2.10;;
7575;SDS011;3829;50.798;4.358;2023-06-24T08:58:04;3.33;;;2.10;;
7575;SDS011;3829;50.798;4.358;2023-06-24T09:00:30;5.67;;;1.77;;
7575;SDS011;3829;50.798;4.358;2023-06-24T09:02:56;2.10;;;1.73;;
7575;SDS011;3829;50.798;4.358;2023-06-24T09:05:22;4.23;;;2.20;;
7575;SDS011;3829;50.798;4.358;2023-06-24T09:07:48;3.63;;;2.00;;
7575;SDS011;3829;50.798;4.358;2023-06-24T09:10:28;2.50;;;1.60;;
7575;SDS011;3829;50.798;4.358;2023-06-24T09:12:56;4.77;;;2.10;;
7575;SDS011;3829;50.798;4.358;2023-06-24T09:15:22;2.47;;;1.80;;
7575;SDS011;3829;50.798;4.358;2023-06-24T09:17:47;5.37;;;2.07;;
7575;SDS011;3829;50.798;4.358;2023-06-24T09:20:13;3.43;;;1.80;;
7575;SDS011;3829;50.798;4.358;2023-06-24T09:22:40;1.93;;;1.70;;
7575;SDS011;3829;50.798;4.358;2023-06-24T09:25:06;2.13;;;1.90;;
7575;SDS011;3829;50.798;4.358;2023-06-24T09:27:32;3.93;;;1.90;;
7575;SDS011;3829;50.798;4.358;2023-06-24T09:29:58;3.23;;;2.17;;
7575;SDS011;3829;50.798;4.358;2023-06-24T09:32:31;2.43;;;1.93;;
7575;SDS011;3829;50.798;4.358;2023-06-24T09:34:57;5.07;;;1.80;;
7575;SDS011;3829;50.798;4.358;2023-06-24T09:37:22;4.00;;;1.90;;
7575;SDS011;3829;50.798;4.358;2023-06-24T09:39:49;2.87;;;2.20;;
7575;SDS011;3829;50.798;4.358;2023-06-24T09:42:15;2.70;;;1.90;;
7575;SDS011;3829;50.798;4.358;2023-06-24T09:44:45;3.17;;;1.80;;
7575;SDS011;3829;50.798;4.358;2023-06-24T09:47:18;3.97;;;2.00;;
7575;SDS011;3829;50.798;4.358;2023-06-24T09:49:44;1.60;;;1.50;;
7575;SDS011;3829;50.798;4.358;2023-06-24T09:52:09;2.40;;;1.80;;
7575;SDS011;3829;50.798;4.358;2023-06-24T09:54:36;1.70;;;1.60;;
7575;SDS011;3829;50.798;4.358;2023-06-24T09:57:02;3.13;;;1.90;;
7575;SDS011;3829;50.798;4.358;2023-06-24T09:59:29;3.57;;;1.90;;
7575;SDS011;3829;50.798;4.358;2023-06-24T10:01:58;1.90;;;1.80;;
7575;SDS011;3829;50.798;4.358;2023-06-24T10:04:24;3.43;;;1.63;;
7575;SDS011;3829;50.798;4.358;2023-06-24T10:06:51;3.43;;;1.77;;
7575;SDS011;3829;50.798;4.358;2023-06-24T10:09:17;1.73;;;1.63;;
7575;SDS011;3829;50.798;4.358;2023-06-24T10:11:44;2.00;;;1.80;;
7575;SDS011;3829;50.798;4.358;2023-06-24T10:14:11;2.27;;;1.60;;
7575;SDS011;3829;50.798;4.358;2023-06-24T10:16:37;1.60;;;1.50;;
7575;SDS011;3829;50.798;4.358;2023-06-24T10:19:03;2.27;;;1.70;;
7575;SDS011;3829;50.798;4.358;2023-06-24T10:27:03;2.37;;;1.70;;
7575;SDS011;3829;50.798;4.358;2023-06-24T10:29:41;2.87;;;1.80;;
7575;SDS011;3829;50.798;4.358;2023-06-24T10:32:10;2.17;;;1.43;;
7575;SDS011;3829;50.798;4.358;2023-06-24T10:34:40;3.03;;;2.00;;
7575;SDS011;3829;50.798;4.358;2023-06-24T10:37:24;3.40;;;1.70;;
7575;SDS011;3829;50.798;4.358;2023-06-24T10:39:52;3.00;;;1.70;;
7575;SDS011;3829;50.798;4.358;2023-06-24T10:42:25;2.73;;;1.50;;
7575;SDS011;3829;50.798;4.358;2023-06-24T10:45:12;1.97;;;1.73;;
7575;SDS011;3829;50.798;4.358;2023-06-24T10:47:40;2.97;;;1.63;;
7575;SDS011;3829;50.798;4.358;2023-06-24T10:50:09;1.70;;;1.60;;
7575;SDS011;3829;50.798;4.358;2023-06-24T10:52:38;3.33;;;1.53;;
7575;SDS011;3829;50.798;4.358;2023-06-24T10:55:04;7.77;;;2.07;;
7575;SDS011;3829;50.798;4.358;2023-06-24T10:57:32;2.10;;;1.87;;
7575;SDS011;3829;50.798;4.358;2023-06-24T10:59:57;2.10;;;1.90;;
7575;SDS011;3829;50.798;4.358;2023-06-24T11:02:24;3.30;;;1.80;;
7575;SDS011;3829;50.798;4.358;2023-06-24T11:04:52;2.27;;;1.90;;
7575;SDS011;3829;50.798;4.358;2023-06-24T11:07:20;3.20;;;1.73;;
7575;SDS011;3829;50.798;4.358;2023-06-24T11:09:56;2.43;;;1.50;;
7575;SDS011;3829;50.798;4.358;2023-06-24T11:12:29;3.67;;;2.10;;
7575;SDS011;3829;50.798;4.358;2023-06-24T11:14:57;3.03;;;2.00;;
7575;SDS011;3829;50.798;4.358;2023-06-24T11:17:24;1.97;;;1.60;;
7575;SDS011;3829;50.798;4.358;2023-06-24T11:19:51;2.70;;;1.97;;
7575;SDS011;3829;50.798;4.358;2023-06-24T11:22:18;3.30;;;1.70;;
7575;SDS011;3829;50.798;4.358;2023-06-24T11:24:43;1.90;;;1.70;;
7575;SDS011;3829;50.798;4.358;2023-06-24T11:27:09;2.50;;;2.00;;
7575;SDS011;3829;50.798;4.358;2023-06-24T11:29:34;2.70;;;1.80;;
7575;SDS011;3829;50.798;4.358;2023-06-24T11:32:01;2.23;;;2.03;;
7575;SDS011;3829;50.798;4.358;2023-06-24T11:34:28;2.13;;;1.93;;
7575;SDS011;3829;50.798;4.358;2023-06-24T11:36:54;2.63;;;1.97;;
7575;SDS011;3829;50.798;4.358;2023-06-24T11:39:21;2.50;;;1.97;;
7575;SDS011;3829;50.798;4.358;2023-06-24T11:41:52;2.90;;;2.00;;
7575;SDS011;3829;50.798;4.358;2023-06-24T11:44:19;2.50;;;2.00;;
7575;SDS011;3829;50.798;4.358;2023-06-24T11:46:45;3.53;;;1.73;;
7575;SDS011;3829;50.798;4.358;2023-06-24T11:49:12;2.70;;;1.80;;
7575;SDS011;3829;50.798;4.358;2023-06-24T11:51:44;2.70;;;1.83;;
7575;SDS011;3829;50.798;4.358;2023-06-24T11:54:14;4.63;;;1.83;;
7575;SDS011;3829;50.798;4.358;2023-06-24T11:56:41;2.83;;;2.03;;
7575;SDS011;3829;50.798;4.358;2023-06-24T11:59:16;2.40;;;2.00;;
7575;SDS011;3829;50.798;4.358;2023-06-24T12:01:45;2.83;;;1.60;;
7575;SDS011;3829;50.798;4.358;2023-06-24T12:04:18;2.37;;;1.70;;
7575;SDS011;3829;50.798;4.358;2023-06-24T12:06:44;1.70;;;1.50;;
7575;SDS011;3829;50.798;4.358;2023-06-24T12:09:09;2.10;;;1.57;;
7575;SDS011;3829;50.798;4.358;2023-06-24T12:11:36;2.30;;;1.60;;
7575;SDS011;3829;50.798;4.358;2023-06-24T12:14:02;2.37;;;1.50;;
7575;SDS011;3829;50.798;4.358;2023-06-24T12:16:29;5.30;;;1.90;;
7575;SDS011;3829;50.798;4.358;2023-06-24T12:18:54;2.63;;;1.60;;
7575;SDS011;3829;50.798;4.358;2023-06-24T12:21:20;2.77;;;2.10;;
7575;SDS011;3829;50.798;4.358;2023-06-24T12:23:46;2.67;;;1.80;;
7575;SDS011;3829;50.798;4.358;2023-06-24T12:26:11;1.83;;;1.67;;
7575;SDS011;3829;50.798;4.358;2023-06-24T12:28:37;2.20;;;1.60;;
7575;SDS011;3829;50.798;4.358;2023-06-24T12:31:03;3.83;;;1.77;;
7575;SDS011;3829;50.798;4.358;2023-06-24T12:33:30;3.60;;;1.73;;
7575;SDS011;3829;50.798;4.358;2023-06-24T12:35:55;2.50;;;1.70;;
7575;SDS011;3829;50.798;4.358;2023-06-24T12:38:21;2.47;;;1.70;;
7575;SDS011;3829;50.798;4.358;2023-06-24T12:40:47;2.10;;;1.53;;
7575;SDS011;3829;50.798;4.358;2023-06-24T12:43:13;2.70;;;2.00;;
7575;SDS011;3829;50.798;4.358;2023-06-24T12:45:39;2.73;;;1.77;;
7575;SDS011;3829;50.798;4.358;2023-06-24T12:48:05;1.97;;;1.67;;
7575;SDS011;3829;50.798;4.358;2023-06-24T12:50:31;2.23;;;1.77;;
7575;SDS011;3829;50.798;4.358;2023-06-24T12:52:57;1.80;;;1.60;;
7575;SDS011;3829;50.798;4.358;2023-06-24T12:55:23;1.80;;;1.70;;
7575;SDS011;3829;50.798;4.358;2023-06-24T12:57:48;3.17;;;2.00;;
7575;SDS011;3829;50.798;4.358;2023-06-24T13:00:14;3.73;;;1.67;;
7575;SDS011;3829;50.798;4.358;2023-06-24T13:02:42;2.30;;;2.10;;
7575;SDS011;3829;50.798;4.358;2023-06-24T13:05:07;1.93;;;1.83;;
7575;SDS011;3829;50.798;4.358;2023-06-24T13:07:33;2.80;;;1.90;;
7575;SDS011;3829;50.798;4.358;2023-06-24T13:09:59;2.37;;;1.90;;
7575;SDS011;3829;50.798;4.358;2023-06-24T13:12:26;2.03;;;1.83;;
7575;SDS011;3829;50.798;4.358;2023-06-24T13:14:51;4.37;;;2.17;;
7575;SDS011;3829;50.798;4.358;2023-06-24T13:17:17;2.07;;;1.70;;
7575;SDS011;3829;50.798;4.358;2023-06-24T13:19:42;2.17;;;1.80;;
7575;SDS011;3829;50.798;4.358;2023-06-24T13:22:08;2.57;;;2.07;;
7575;SDS011;3829;50.798;4.358;2023-06-24T13:24:34;3.07;;;1.80;;
7575;SDS011;3829;50.798;4.358;2023-06-24T13:26:59;2.00;;;1.80;;
7575;SDS011;3829;50.798;4.358;2023-06-24T13:29:25;3.03;;;1.70;;
7575;SDS011;3829;50.798;4.358;2023-06-24T13:31:52;2.40;;;1.67;;
7575;SDS011;3829;50.798;4.358;2023-06-24T13:34:17;2.47;;;2.00;;
7575;SDS011;3829;50.798;4.358;2023-06-24T13:36:44;3.90;;;2.10;;
7575;SDS011;3829;50.798;4.358;2023-06-24T13:39:09;2.00;;;1.77;;
7575;SDS011;3829;50.798;4.358;2023-06-24T13:41:37;2.53;;;1.90;;
7575;SDS011;3829;50.798;4.358;2023-06-24T13:44:03;3.93;;;1.90;;
7575;SDS011;3829;50.798;4.358;2023-06-24T13:46:29;2.57;;;1.97;;
7575;SDS011;3829;50.798;4.358;2023-06-24T13:48:56;4.17;;;1.97;;
7575;SDS011;3829;50.798;4.358;2023-06-24T13:51:23;2.03;;;1.80;;
7575;SDS011;3829;50.798;4.358;2023-06-24T13:53:49;1.70;;;1.53;;
7575;SDS011;3829;50.798;4.358;2023-06-24T13:56:16;2.53;;;1.73;;
7575;SDS011;3829;50.798;4.358;2023-06-24T13:58:42;3.80;;;1.97;;
7575;SDS011;3829;50.798;4.358;2023-06-24T14:01:08;2.43;;;1.97;;
7575;SDS011;3829;50.798;4.358;2023-06-24T14:03:34;1.87;;;1.67;;
7575;SDS011;3829;50.798;4.358;2023-06-24T14:06:00;2.60;;;2.00;;
7575;SDS011;3829;50.798;4.358;2023-06-24T14:08:27;3.47;;;1.80;;
7575;SDS011;3829;50.798;4.358;2023-06-24T14:10:54;1.83;;;1.60;;
7575;SDS011;3829;50.798;4.358;2023-06-24T14:13:20;2.60;;;1.87;;
7575;SDS011;3829;50.798;4.358;2023-06-24T14:15:46;2.80;;;1.90;;
7575;SDS011;3829;50.798;4.358;2023-06-24T14:18:11;3.00;;;1.90;;
7575;SDS011;3829;50.798;4.358;2023-06-24T14:20:37;1.77;;;1.67;;
7575;SDS011;3829;50.798;4.358;2023-06-24T14:23:03;2.87;;;2.13;;
7575;SDS011;3829;50.798;4.358;2023-06-24T14:25:29;2.30;;;1.83;;
7575;SDS011;3829;50.798;4.358;2023-06-24T14:27:55;2.27;;;1.80;;
7575;SDS011;3829;50.798;4.358;2023-06-24T14:30:20;2.87;;;2.13;;
7575;SDS011;3829;50.798;4.358;2023-06-24T14:32:46;2.83;;;1.63;;
7575;SDS011;3829;50.798;4.358;2023-06-24T14:35:12;2.23;;;2.03;;
7575;SDS011;3829;50.798;4.358;2023-06-24T14:37:38;2.00;;;1.77;;
7575;SDS011;3829;50.798;4.358;2023-06-24T14:40:03;2.30;;;2.10;;
7575;SDS011;3829;50.798;4.358;2023-06-24T14:42:29;2.60;;;2.00;;
7575;SDS011;3829;50.798;4.358;2023-06-24T14:44:55;2.60;;;1.90;;
7575;SDS011;3829;50.798;4.358;2023-06-24T14:47:21;3.37;;;1.97;;
7575;SDS011;3829;50.798;4.358;2023-06-24T14:49:46;4.50;;;2.03;;
7575;SDS011;3829;50.798;4.358;2023-06-24T14:52:12;4.13;;;1.90;;
7575;SDS011;3829;50.798;4.358;2023-06-24T14:54:37;2.60;;;2.40;;
7575;SDS011;3829;50.798;4.358;2023-06-24T14:57:03;2.03;;;1.77;;
7575;SDS011;3829;50.798;4.358;2023-06-24T14:59:29;2.43;;;1.90;;
7575;SDS011;3829;50.798;4.358;2023-06-24T15:01:54;2.77;;;2.17;;
7575;SDS011;3829;50.798;4.358;2023-06-24T15:04:20;2.40;;;2.17;;
7575;SDS011;3829;50.798;4.358;2023-06-24T15:06:45;2.90;;;1.93;;
7575;SDS011;3829;50.798;4.358;2023-06-24T15:09:11;2.07;;;1.87;;
7575;SDS011;3829;50.798;4.358;2023-06-24T15:11:36;3.13;;;2.00;;
7575;SDS011;3829;50.798;4.358;2023-06-24T15:14:02;2.10;;;1.95;;
7575;SDS011;3829;50.798;4.358;2023-06-24T15:16:28;2.33;;;2.13;;
7575;SDS011;3829;50.798;4.358;2023-06-24T15:18:53;2.35;;;2.10;;
7575;SDS011;3829;50.798;4.358;2023-06-24T15:21:19;2.60;;;1.80;;
7575;SDS011;3829;50.798;4.358;2023-06-24T15:23:46;3.28;;;2.03;;